Time;durP1;ratioP1;P1;durP2;ratioP2;P2;SDS_P1;SDS_P2;PMS_P1;PMS_P2;Temp;Humidity;BMP_temperature;BMP_pressure;BME280_temperature;BME280_humidity;BME280_pressure;Samples;Min_cycle;Max_cycle;Signal;HPM_P1;HPM_P2
2021/07/04 00:02:08;;;;;;;7.67;6.87;;;;;;;16.94;69.93;100488.03;5083642;28;20198;-79
2021/07/04 00:04:36;;;;;;;7.57;6.87;;;;;;;16.92;70.28;100484.66;5086166;28;20207;-80
2021/07/04 00:07:04;;;;;;;7.70;6.87;;;;;;;16.92;70.50;100486.47;5080239;28;20199;-80
2021/07/04 00:09:31;;;;;;;6.67;6.10;;;;;;;16.90;70.61;100486.63;5087961;28;20590;-80
2021/07/04 00:11:57;;;;;;;7.20;6.60;;;;;;;16.90;70.59;100485.78;5083826;28;20225;-79
2021/07/04 00:14:24;;;;;;;8.43;6.70;;;;;;;16.88;70.63;100487.75;5079470;28;20563;-80
2021/07/04 00:16:51;;;;;;;6.90;6.33;;;;;;;16.84;70.36;100483.66;5082682;28;20237;-79
2021/07/04 00:19:18;;;;;;;6.97;6.10;;;;;;;16.81;70.63;100486.63;5090047;28;20213;-80
2021/07/04 00:21:46;;;;;;;6.50;5.97;;;;;;;16.78;70.63;100484.22;5092430;28;20226;-80
2021/07/04 00:24:12;;;;;;;7.83;6.60;;;;;;;16.75;70.50;100487.19;5080729;28;20203;-80
2021/07/04 00:26:39;;;;;;;7.33;6.63;;;;;;;16.71;70.57;100485.75;5074566;28;20206;-80
2021/07/04 00:29:05;;;;;;;8.50;6.10;;;;;;;16.66;70.87;100484.34;5083067;28;20199;-78
2021/07/04 00:31:33;;;;;;;7.20;6.60;;;;;;;16.60;70.74;100482.19;5075094;28;20229;-79
2021/07/04 00:34:00;;;;;;;7.10;6.50;;;;;;;16.57;70.57;100484.31;5075413;28;20207;-78
2021/07/04 00:36:26;;;;;;;7.60;6.80;;;;;;;16.51;70.72;100482.16;5074884;28;20235;-78
2021/07/04 00:38:54;;;;;;;7.27;6.47;;;;;;;16.48;70.92;100474.41;5074994;28;20242;-78
2021/07/04 00:41:21;;;;;;;8.90;7.00;;;;;;;16.45;71.03;100467.47;5074813;28;20236;-78
2021/07/04 00:43:48;;;;;;;7.87;7.03;;;;;;;16.44;70.98;100470.28;5073817;28;20588;-79
2021/07/04 00:46:15;;;;;;;9.07;7.60;;;;;;;16.37;71.26;100467.28;5089350;28;20195;-78
2021/07/04 00:48:42;;;;;;;7.77;6.90;;;;;;;16.32;71.40;100464.16;5094062;28;20212;-78
2021/07/04 00:51:09;;;;;;;8.27;7.47;;;;;;;16.29;71.50;100472.53;5077735;28;20719;-79
2021/07/04 00:53:36;;;;;;;9.47;7.13;;;;;;;16.26;71.64;100465.59;5074572;28;20211;-79
2021/07/04 00:56:04;;;;;;;9.73;7.37;;;;;;;16.23;71.81;100465.84;5073351;28;20223;-80
2021/07/04 00:58:32;;;;;;;8.17;6.43;;;;;;;16.19;71.69;100463.56;5075431;28;20210;-79
2021/07/04 01:00:58;;;;;;;6.60;6.00;;;;;;;16.13;71.83;100464.97;5077232;28;20222;-80
2021/07/04 01:03:25;;;;;;;7.00;6.30;;;;;;;16.09;71.82;100460.03;5077323;28;20294;-79
2021/07/04 01:05:52;;;;;;;9.37;6.63;;;;;;;16.03;71.69;100458.72;5074015;28;20199;-79
2021/07/04 01:08:18;;;;;;;7.03;6.43;;;;;;;15.97;71.67;100460.09;5077529;28;20200;-79
2021/07/04 01:10:45;;;;;;;8.13;7.33;;;;;;;15.94;72.04;100448.81;5064148;28;20234;-79
2021/07/04 01:13:14;;;;;;;7.90;7.10;;;;;;;15.94;72.38;100454.19;5065086;28;20197;-79
2021/07/04 01:15:41;;;;;;;9.27;8.30;;;;;;;15.91;72.67;100457.13;5083295;28;20683;-79
2021/07/04 01:18:09;;;;;;;8.70;7.33;;;;;;;15.89;72.95;100457.28;5073593;28;20223;-79
2021/07/04 01:20:38;;;;;;;9.37;7.80;;;;;;;15.90;73.20;100453.59;5082164;28;20693;-79
2021/07/04 01:23:07;;;;;;;10.50;7.80;;;;;;;15.90;73.04;100458.97;5073389;28;20206;-80
2021/07/04 01:25:37;;;;;;;7.47;6.77;;;;;;;15.88;73.25;100454.72;5073150;28;20207;-79
2021/07/04 01:28:04;;;;;;;8.77;6.30;;;;;;;15.84;72.98;100448.75;5073467;28;20209;-79
2021/07/04 01:30:31;;;;;;;10.03;6.63;;;;;;;15.78;72.75;100454.66;5073270;28;20226;-79
2021/07/04 01:32:58;;;;;;;8.00;7.20;;;;;;;15.75;73.13;100448.75;5065588;28;20567;-79
2021/07/04 01:35:25;;;;;;;7.70;6.87;;;;;;;15.70;73.07;100451.81;5053270;28;20224;-78
2021/07/04 01:37:52;;;;;;;8.80;7.90;;;;;;;15.66;73.24;100455.75;5053233;28;20237;-79
2021/07/04 01:40:21;;;;;;;9.17;6.70;;;;;;;15.59;73.56;100447.38;5066859;28;20301;-79
2021/07/04 01:42:49;;;;;;;8.17;7.37;;;;;;;15.57;73.50;100451.19;5092978;28;20213;-79
2021/07/04 01:45:18;;;;;;;7.30;6.37;;;;;;;15.52;73.57;100443.50;5093703;28;20216;-79
2021/07/04 01:47:46;;;;;;;8.03;7.20;;;;;;;15.50;73.99;100441.94;5093367;28;20210;-79
2021/07/04 01:50:15;;;;;;;7.97;7.10;;;;;;;15.47;74.05;100442.19;5093339;28;20228;-79
2021/07/04 01:52:42;;;;;;;11.53;8.17;;;;;;;15.46;74.10;100443.19;5081906;28;20230;-80
2021/07/04 01:55:13;;;;;;;7.83;7.13;;;;;;;15.47;74.45;100444.88;5079064;28;20210;-79
2021/07/04 01:57:40;;;;;;;10.40;7.70;;;;;;;15.45;74.56;100439.66;5079458;28;20717;-79
2021/07/04 02:00:11;;;;;;;7.73;6.83;;;;;;;15.43;74.36;100438.06;5072745;28;20221;-79
2021/07/04 02:02:38;;;;;;;8.03;7.23;;;;;;;15.41;74.28;100434.66;5082180;28;20207;-80
2021/07/04 02:05:06;;;;;;;8.53;7.73;;;;;;;15.39;74.49;100436.66;5081698;28;20216;-79
2021/07/04 02:07:32;;;;;;;9.47;7.23;;;;;;;15.37;74.39;100444.00;5070208;28;20205;-78
2021/07/04 02:09:59;;;;;;;8.70;7.13;;;;;;;15.36;74.77;100431.56;5073946;28;20203;-79
2021/07/04 02:12:26;;;;;;;8.50;7.70;;;;;;;15.33;74.87;100423.78;5085152;28;20212;-79
2021/07/04 02:14:54;;;;;;;8.73;7.63;;;;;;;15.28;74.55;100422.31;5093134;28;20722;-78
2021/07/04 02:17:21;;;;;;;8.77;7.00;;;;;;;15.23;74.64;100434.44;5093215;28;20694;-79
2021/07/04 02:19:47;;;;;;;7.97;7.17;;;;;;;15.18;74.94;100429.47;5093349;28;20226;-78
2021/07/04 02:22:14;;;;;;;7.77;6.90;;;;;;;15.14;75.09;100427.19;5093473;28;20204;-79
2021/07/04 02:24:40;;;;;;;8.30;7.43;;;;;;;15.10;75.29;100440.00;5093540;28;20287;-79
2021/07/04 02:27:10;;;;;;;7.70;6.90;;;;;;;15.10;75.55;100439.16;5093483;28;20208;-79
2021/07/04 02:29:37;;;;;;;9.23;8.43;;;;;;;15.09;75.60;100432.94;5075051;28;20201;-79
2021/07/04 02:32:05;;;;;;;8.00;6.90;;;;;;;15.10;75.61;100442.69;5065842;28;20233;-79
2021/07/04 02:34:32;;;;;;;10.27;7.40;;;;;;;15.03;75.56;100436.16;5060438;28;20214;-80
2021/07/04 02:36:58;;;;;;;9.10;7.30;;;;;;;14.96;75.84;100444.84;5077345;28;20216;-80
2021/07/04 02:39:25;;;;;;;9.40;7.93;;;;;;;14.93;76.21;100448.63;5081627;28;20207;-79
2021/07/04 02:41:52;;;;;;;10.40;9.40;;;;;;;14.93;76.45;100452.16;5072183;28;20231;-80
2021/07/04 02:44:18;;;;;;;10.83;9.23;;;;;;;14.95;76.51;100452.03;5072685;28;20206;-80
2021/07/04 02:46:45;;;;;;;11.53;9.53;;;;;;;14.94;76.77;100448.50;5077094;28;20208;-79
2021/07/04 02:49:12;;;;;;;10.57;9.57;;;;;;;14.93;76.99;100441.44;5065146;28;20569;-79
2021/07/04 02:51:42;;;;;;;9.70;8.70;;;;;;;14.89;77.08;100447.19;5072026;28;20246;-79
2021/07/04 02:54:08;;;;;;;10.97;8.30;;;;;;;14.88;76.97;100451.69;5092625;28;20220;-78
2021/07/04 02:56:35;;;;;;;9.63;8.63;;;;;;;14.87;77.12;100446.47;5075056;28;20315;-79
2021/07/04 02:59:02;;;;;;;9.60;8.73;;;;;;;14.87;77.75;100446.47;5072243;28;20205;-79
2021/07/04 03:01:28;;;;;;;10.17;8.73;;;;;;;14.87;77.74;100443.78;5088633;28;20220;-79
2021/07/04 03:03:55;;;;;;;11.53;9.03;;;;;;;14.89;77.77;100439.16;5093196;28;20205;-79
2021/07/04 03:06:23;;;;;;;9.40;8.50;;;;;;;14.90;78.14;100439.00;5084164;28;20240;-79
2021/07/04 03:08:49;;;;;;;13.83;8.87;;;;;;;14.90;77.52;100435.47;5083890;28;20205;-79
2021/07/04 03:11:16;;;;;;;10.67;8.23;;;;;;;14.83;77.60;100435.16;5084450;28;20224;-79
2021/07/04 03:13:42;;;;;;;8.13;7.33;;;;;;;14.76;77.21;100433.13;5077193;28;20200;-79
2021/07/04 03:16:09;;;;;;;9.23;8.30;;;;;;;14.73;77.65;100436.06;5072373;28;20205;-79
2021/07/04 03:18:35;;;;;;;11.07;8.30;;;;;;;14.69;77.57;100427.41;5055873;28;20731;-79
2021/07/04 03:21:02;;;;;;;8.57;7.77;;;;;;;14.66;77.43;100422.34;5055994;28;20699;-78
2021/07/04 03:23:29;;;;;;;8.97;7.90;;;;;;;14.65;77.70;100427.81;5055366;28;20206;-78
2021/07/04 03:25:57;;;;;;;8.13;7.23;;;;;;;14.62;77.27;100431.59;5056504;28;20210;-78
2021/07/04 03:28:23;;;;;;;10.50;7.90;;;;;;;14.59;77.20;100435.38;5068500;28;20668;-79
2021/07/04 03:30:50;;;;;;;9.40;8.47;;;;;;;14.59;77.60;100438.06;5090171;28;20225;-79
2021/07/04 03:33:17;;;;;;;11.37;8.93;;;;;;;14.59;77.76;100424.66;5077637;28;20569;-79
2021/07/04 03:35:44;;;;;;;12.00;8.73;;;;;;;14.60;78.26;100433.56;5082988;28;20205;-79
2021/07/04 03:38:10;;;;;;;12.50;8.80;;;;;;;14.58;78.18;100425.66;5078252;28;20356;-79
2021/07/04 03:40:38;;;;;;;11.93;8.03;;;;;;;14.56;78.03;100424.91;5092786;28;20582;-79
2021/07/04 03:43:05;;;;;;;10.30;9.20;;;;;;;14.54;78.46;100428.69;5083540;28;20665;-79
2021/07/04 03:45:31;;;;;;;10.07;8.87;;;;;;;14.51;78.41;100424.44;5067990;28;20300;-79
2021/07/04 03:47:58;;;;;;;10.33;8.60;;;;;;;14.52;78.63;100419.94;5095699;28;20196;-79
2021/07/04 03:50:24;;;;;;;10.80;9.13;;;;;;;14.53;79.42;100430.53;5085386;28;20261;-79
2021/07/04 03:52:53;;;;;;;10.30;9.07;;;;;;;14.56;79.57;100426.75;5082950;28;20208;-79
2021/07/04 03:55:20;;;;;;;11.50;9.93;;;;;;;14.57;79.53;100429.31;5075516;28;20217;-79
2021/07/04 03:57:48;;;;;;;12.57;9.10;;;;;;;14.59;79.87;100429.19;5064630;28;20236;-79
2021/07/04 04:00:15;;;;;;;10.67;8.50;;;;;;;14.60;79.47;100425.53;5073318;28;20228;-79
2021/07/04 04:02:42;;;;;;;11.17;10.10;;;;;;;14.61;80.04;100431.72;5075660;28;20212;-79
2021/07/04 04:05:10;;;;;;;12.07;9.70;;;;;;;14.63;80.27;100432.47;5077183;28;20200;-80
2021/07/04 04:07:36;;;;;;;10.50;9.30;;;;;;;14.66;80.38;100429.53;5062857;28;20193;-80
2021/07/04 04:10:04;;;;;;;10.47;9.30;;;;;;;14.70;80.41;100439.00;5074435;28;20232;-79
2021/07/04 04:12:30;;;;;;;12.43;9.70;;;;;;;14.73;80.94;100438.75;5054350;28;20206;-78
2021/07/04 04:15:00;;;;;;;9.83;8.90;;;;;;;14.77;80.76;100440.19;5066985;28;20204;-80
2021/07/04 04:17:26;;;;;;;10.17;9.17;;;;;;;14.83;80.89;100439.69;5084809;28;20282;-79
2021/07/04 04:19:53;;;;;;;11.83;10.63;;;;;;;14.87;81.20;100431.22;5094315;28;20211;-78
2021/07/04 04:22:20;;;;;;;11.30;9.57;;;;;;;14.91;81.23;100432.69;5094942;28;20208;-78
2021/07/04 04:24:47;;;;;;;11.43;9.97;;;;;;;14.96;80.89;100429.63;5094432;28;20231;-78
2021/07/04 04:27:14;;;;;;;12.23;10.30;;;;;;;15.01;81.09;100438.13;5084008;28;20205;-78
2021/07/04 04:29:40;;;;;;;10.80;9.70;;;;;;;15.07;81.19;100440.25;5073834;28;20205;-79
2021/07/04 04:32:09;;;;;;;11.90;10.73;;;;;;;15.13;81.11;100438.91;5080818;28;20225;-79
2021/07/04 04:34:35;;;;;;;11.60;10.57;;;;;;;15.18;81.30;100434.84;5075402;28;20219;-79
2021/07/04 04:37:02;;;;;;;11.60;10.27;;;;;;;15.23;81.20;100437.13;5061481;28;20233;-80
2021/07/04 04:39:29;;;;;;;10.80;9.73;;;;;;;15.27;81.34;100436.72;5080222;28;20574;-80
2021/07/04 04:41:56;;;;;;;13.97;10.43;;;;;;;15.33;81.17;100442.56;5076880;28;20231;-79
2021/07/04 04:44:22;;;;;;;12.70;10.07;;;;;;;15.37;81.20;100433.25;5074557;28;20824;-79
2021/07/04 04:46:49;;;;;;;10.70;9.70;;;;;;;15.41;81.41;100440.03;5075207;28;20297;-79
2021/07/04 04:49:17;;;;;;;10.93;9.83;;;;;;;15.47;81.25;100434.16;5074440;28;20668;-79
2021/07/04 04:51:43;;;;;;;11.00;9.63;;;;;;;15.50;81.55;100432.06;5074444;28;20224;-80
2021/07/04 04:54:10;;;;;;;11.47;10.37;;;;;;;15.55;81.37;100427.19;5073985;28;20224;-79
2021/07/04 04:56:37;;;;;;;10.77;9.80;;;;;;;15.63;81.52;100439.91;5074659;28;20189;-79
2021/07/04 04:59:04;;;;;;;11.07;9.70;;;;;;;15.68;81.47;100435.00;5074288;28;20224;-80
2021/07/04 05:01:31;;;;;;;11.50;10.40;;;;;;;15.74;81.16;100441.66;5074096;28;20221;-79
2021/07/04 05:03:58;;;;;;;11.97;10.23;;;;;;;15.78;81.02;100430.50;5074274;28;20665;-79
2021/07/04 05:06:26;;;;;;;11.00;10.00;;;;;;;15.84;81.33;100432.66;5074809;28;20663;-81
2021/07/04 05:08:53;;;;;;;14.23;10.70;;;;;;;15.88;81.34;100428.72;5082788;28;20197;-81
2021/07/04 05:11:19;;;;;;;12.20;9.87;;;;;;;15.94;81.18;100430.00;5082281;28;20227;-81
2021/07/04 05:13:46;;;;;;;12.20;10.50;;;;;;;16.00;81.30;100429.44;5088938;28;20200;-81
2021/07/04 05:16:12;;;;;;;10.97;9.77;;;;;;;16.06;81.10;100436.13;5082878;28;20205;-81
2021/07/04 05:18:39;;;;;;;10.80;9.80;;;;;;;16.11;81.03;100441.94;5083619;28;20221;-82
2021/07/04 05:21:06;;;;;;;10.67;9.63;;;;;;;16.14;80.80;100437.09;5078629;28;20336;-82
2021/07/04 05:23:34;;;;;;;10.10;9.13;;;;;;;16.17;80.45;100436.00;5090182;28;20205;-82
2021/07/04 05:26:01;;;;;;;10.07;9.10;;;;;;;16.16;80.16;100442.34;5069922;28;20206;-80
2021/07/04 05:28:28;;;;;;;10.53;9.17;;;;;;;16.16;80.20;100428.91;5067142;28;20206;-80
2021/07/04 05:30:55;;;;;;;10.40;8.97;;;;;;;16.17;79.73;100441.34;5069331;28;20625;-81
2021/07/04 05:33:22;;;;;;;9.70;8.80;;;;;;;16.19;79.80;100437.56;5082424;28;20201;-81
2021/07/04 05:35:49;;;;;;;9.83;9.00;;;;;;;16.24;79.65;100434.47;5065307;28;20213;-81
2021/07/04 05:38:20;;;;;;;10.00;9.10;;;;;;;16.26;79.31;100437.88;5069621;28;20316;-80
2021/07/04 05:40:49;;;;;;;10.10;9.20;;;;;;;16.31;79.17;100435.59;5070654;28;20233;-80
2021/07/04 05:43:16;;;;;;;9.27;8.27;;;;;;;16.35;78.89;100437.00;5058359;28;20201;-81
2021/07/04 05:45:43;;;;;;;9.83;8.83;;;;;;;16.39;78.78;100440.28;5068895;28;20217;-79
2021/07/04 05:48:10;;;;;;;10.03;9.00;;;;;;;16.43;78.42;100442.56;5064658;28;20545;-80
2021/07/04 05:50:37;;;;;;;9.70;8.40;;;;;;;16.46;78.43;100434.22;5063844;28;20238;-80
2021/07/04 05:53:03;;;;;;;11.07;9.30;;;;;;;16.50;78.44;100424.00;5061773;28;20201;-80
2021/07/04 05:55:30;;;;;;;10.43;9.33;;;;;;;16.53;78.34;100427.28;5060107;28;20229;-80
2021/07/04 05:57:58;;;;;;;11.23;10.17;;;;;;;16.57;78.46;100431.38;5074974;28;20218;-80
2021/07/04 06:00:25;;;;;;;11.20;9.03;;;;;;;16.60;78.61;100428.41;5067133;28;20572;-80
2021/07/04 06:02:51;;;;;;;11.27;10.03;;;;;;;16.63;78.90;100425.47;5065749;28;20213;-81
2021/07/04 06:05:18;;;;;;;10.47;9.57;;;;;;;16.66;79.06;100432.41;5068388;28;20204;-80
2021/07/04 06:07:45;;;;;;;11.60;9.37;;;;;;;16.66;79.01;100422.50;5071669;28;20209;-82
2021/07/04 06:10:12;;;;;;;11.93;9.40;;;;;;;16.68;79.22;100427.72;5075667;28;20269;-80
2021/07/04 06:12:38;;;;;;;10.77;9.77;;;;;;;16.66;79.31;100430.56;5063229;28;20621;-80
2021/07/04 06:15:08;;;;;;;10.00;9.00;;;;;;;16.66;79.10;100419.78;5071912;28;20233;-81
2021/07/04 06:17:35;;;;;;;11.00;9.20;;;;;;;16.67;79.06;100426.03;5072016;28;20236;-82
2021/07/04 06:20:01;;;;;;;11.97;9.07;;;;;;;16.68;79.31;100422.34;5069887;28;20225;-82
2021/07/04 06:22:28;;;;;;;11.23;9.70;;;;;;;16.71;79.12;100437.34;5063556;28;20209;-82
2021/07/04 06:24:54;;;;;;;10.67;9.43;;;;;;;16.73;79.13;100430.84;5067818;28;20540;-82
2021/07/04 06:27:21;;;;;;;9.80;8.90;;;;;;;16.75;79.09;100433.41;5064865;28;20210;-81
2021/07/04 06:29:48;;;;;;;9.90;9.00;;;;;;;16.78;78.95;100430.44;5068799;28;20204;-81
2021/07/04 06:32:16;;;;;;;10.17;9.27;;;;;;;16.80;78.87;100423.94;5068566;28;20207;-81
2021/07/04 06:34:42;;;;;;;10.50;9.40;;;;;;;16.84;78.94;100424.50;5064526;28;20579;-81
2021/07/04 06:37:09;;;;;;;10.70;9.80;;;;;;;16.88;79.22;100425.88;5059455;28;20199;-81
2021/07/04 06:39:35;;;;;;;11.10;9.97;;;;;;;16.93;79.14;100423.63;5058654;28;20231;-81
2021/07/04 06:42:02;;;;;;;11.33;10.33;;;;;;;16.98;79.70;100421.34;5058190;28;20589;-81
2021/07/04 06:44:28;;;;;;;10.87;9.77;;;;;;;17.04;79.69;100418.06;5069391;28;20210;-81
2021/07/04 06:46:55;;;;;;;10.60;9.60;;;;;;;17.09;79.54;100418.50;5066219;28;20200;-81
2021/07/04 06:49:23;;;;;;;11.43;10.43;;;;;;;17.13;79.67;100413.69;5070850;28;20290;-82
2021/07/04 06:51:49;;;;;;;11.20;10.03;;;;;;;17.18;79.92;100419.47;5070853;28;20230;-82
2021/07/04 06:54:16;;;;;;;11.33;10.23;;;;;;;17.23;79.71;100418.03;5071909;28;20307;-82
2021/07/04 06:56:42;;;;;;;11.10;10.00;;;;;;;17.30;79.77;100412.94;5073695;28;20218;-82
2021/07/04 06:59:09;;;;;;;12.03;10.80;;;;;;;17.38;79.84;100420.28;5070188;28;20224;-82
2021/07/04 07:01:35;;;;;;;12.93;10.43;;;;;;;17.48;79.94;100410.31;5072852;28;20588;-82
2021/07/04 07:04:02;;;;;;;10.23;9.33;;;;;;;17.58;80.12;100416.50;5070814;28;20205;-81
2021/07/04 07:06:30;;;;;;;14.50;10.00;;;;;;;17.69;79.88;100410.97;5078252;28;20217;-81
2021/07/04 07:08:56;;;;;;;11.57;10.20;;;;;;;17.79;79.69;100408.22;5067335;28;20290;-81
2021/07/04 07:11:23;;;;;;;10.87;9.97;;;;;;;17.90;79.65;100408.06;5071942;28;20584;-81
2021/07/04 07:13:49;;;;;;;11.00;9.67;;;;;;;18.04;79.69;100413.78;5073159;28;20216;-81
2021/07/04 07:16:16;;;;;;;10.67;9.57;;;;;;;18.18;79.53;100404.31;5085479;28;20214;-80
2021/07/04 07:18:43;;;;;;;10.17;9.27;;;;;;;18.33;79.53;100401.94;5079528;28;20224;-82
2021/07/04 07:21:09;;;;;;;9.87;9.00;;;;;;;18.53;79.20;100398.09;5072272;28;20231;-81
2021/07/04 07:23:37;;;;;;;10.03;8.97;;;;;;;18.77;78.96;100396.66;5071492;28;20206;-81
2021/07/04 07:26:04;;;;;;;10.47;9.40;;;;;;;19.03;78.90;100395.69;5070079;28;20453;-81
2021/07/04 07:28:30;;;;;;;9.20;8.30;;;;;;;19.34;78.28;100395.22;5066845;28;20206;-81
2021/07/04 07:30:57;;;;;;;9.90;8.80;;;;;;;19.66;77.46;100387.34;5075698;28;20234;-81
2021/07/04 07:33:23;;;;;;;9.23;8.20;;;;;;;19.94;76.08;100384.38;5074793;28;20635;-80
2021/07/04 07:35:51;;;;;;;10.27;9.37;;;;;;;20.20;75.10;100384.31;5069008;28;20210;-82
2021/07/04 07:38:18;;;;;;;9.67;8.67;;;;;;;20.43;73.55;100382.66;5075765;28;20672;-80
2021/07/04 07:40:45;;;;;;;10.90;9.20;;;;;;;20.60;72.44;100381.66;5070874;28;20231;-80
2021/07/04 07:43:12;;;;;;;10.00;9.03;;;;;;;20.75;71.31;100382.72;5069098;28;20539;-80
2021/07/04 07:45:40;;;;;;;9.00;8.20;;;;;;;20.93;70.47;100377.13;5073464;28;20582;-81
2021/07/04 07:48:06;;;;;;;9.13;8.23;;;;;;;21.06;69.09;100376.59;5072442;28;20206;-81
2021/07/04 07:50:33;;;;;;;9.27;8.47;;;;;;;21.19;68.30;100374.19;5069945;28;20651;-81
2021/07/04 07:53:00;;;;;;;9.73;8.83;;;;;;;21.33;67.74;100373.50;5072595;28;20206;-81
2021/07/04 07:55:26;;;;;;;8.50;7.80;;;;;;;21.49;66.92;100372.66;5071870;28;20214;-81
2021/07/04 07:57:54;;;;;;;9.43;8.10;;;;;;;21.60;66.59;100368.69;5062007;28;20211;-81
2021/07/04 08:00:22;;;;;;;9.07;8.30;;;;;;;21.71;66.03;100362.88;5073149;28;20748;-82
2021/07/04 08:02:48;;;;;;;9.80;8.47;;;;;;;21.87;66.10;100364.69;5076322;28;20291;-81
2021/07/04 08:05:15;;;;;;;9.18;8.38;;;;;;;22.05;65.76;100365.28;5075455;28;20213;-82
2021/07/04 08:07:42;;;;;;;9.18;8.25;;;;;;;22.19;65.05;100369.97;5076600;28;20201;-81
2021/07/04 08:10:10;;;;;;;8.95;8.15;;;;;;;22.31;64.08;100368.53;5074846;28;20224;-80
2021/07/04 08:12:36;;;;;;;8.50;7.70;;;;;;;22.40;63.45;100372.88;5073176;28;20291;-81
2021/07/04 08:15:06;;;;;;;9.35;8.55;;;;;;;22.48;62.31;100366.56;5066017;28;20197;-81
2021/07/04 08:17:33;;;;;;;9.38;8.48;;;;;;;22.52;61.41;100366.00;5072130;28;20201;-81
2021/07/04 08:19:59;;;;;;;9.00;8.10;;;;;;;22.61;60.67;100360.50;5071567;28;20823;-79
2021/07/04 08:22:26;;;;;;;8.88;8.15;;;;;;;22.69;60.47;100361.28;5081226;28;20205;-80
2021/07/04 08:24:53;;;;;;;9.27;8.30;;;;;;;22.82;60.11;100356.13;5063405;28;20204;-79
2021/07/04 08:27:20;;;;;;;8.43;7.70;;;;;;;22.95;59.96;100358.19;5066193;28;20232;-79
2021/07/04 08:29:46;;;;;;;8.45;7.70;;;;;;;23.08;59.59;100349.44;5066169;28;20288;-79
2021/07/04 08:32:14;;;;;;;8.82;7.93;;;;;;;23.19;59.18;100348.97;5077539;28;20207;-80
2021/07/04 08:34:41;;;;;;;8.27;7.47;;;;;;;23.30;58.90;100353.94;5071479;28;20211;-80
2021/07/04 08:37:07;;;;;;;9.20;8.00;;;;;;;23.42;58.34;100348.91;5075040;28;20218;-80
2021/07/04 08:39:34;;;;;;;8.43;7.63;;;;;;;23.51;58.12;100345.03;5066899;28;20221;-79
2021/07/04 08:42:01;;;;;;;8.75;8.05;;;;;;;23.59;57.96;100352.28;5064779;28;20221;-80
2021/07/04 08:44:28;;;;;;;9.65;8.80;;;;;;;23.66;58.37;100345.06;5071693;28;20258;-79
2021/07/04 08:46:55;;;;;;;8.43;7.60;;;;;;;23.73;58.10;100343.28;5065416;28;20201;-80
2021/07/04 08:49:23;;;;;;;11.27;7.85;;;;;;;23.82;58.20;100344.88;5073369;28;20644;-80
2021/07/04 08:51:49;;;;;;;9.05;8.30;;;;;;;23.86;57.53;100341.56;5072202;28;20312;-81
2021/07/04 08:54:16;;;;;;;8.05;7.35;;;;;;;23.93;57.67;100333.50;5070390;28;20667;-80
2021/07/04 08:56:42;;;;;;;8.82;8.00;;;;;;;24.01;57.03;100338.78;5076872;28;20201;-80
2021/07/04 08:59:09;;;;;;;8.02;7.32;;;;;;;24.10;56.56;100334.94;5068943;28;20234;-81
2021/07/04 09:01:35;;;;;;;7.72;7.05;;;;;;;24.17;55.66;100329.59;5069227;28;20605;-80
2021/07/04 09:04:11;;;;;;;7.15;6.65;;;;;;;24.27;55.58;100335.56;5069586;28;20197;-80
2021/07/04 09:06:41;;;;;;;8.18;7.47;;;;;;;24.34;54.86;100330.22;5072996;28;20204;-80
2021/07/04 09:09:15;;;;;;;8.52;7.78;;;;;;;24.44;54.48;100333.44;5070414;28;20203;-80
2021/07/04 09:11:54;;;;;;;9.00;8.10;;;;;;;24.57;54.42;100328.09;5072183;28;20216;-79
2021/07/04 09:14:30;;;;;;;9.20;8.40;;;;;;;24.75;54.35;100333.06;5071186;28;20189;-78
2021/07/04 09:16:57;;;;;;;8.80;7.90;;;;;;;24.90;53.98;100329.22;5066531;28;20570;-79
2021/07/04 09:19:23;;;;;;;8.70;7.80;;;;;;;25.03;53.45;100325.81;5074652;28;20220;-79
2021/07/04 09:22:03;;;;;;;8.48;7.68;;;;;;;25.11;53.24;100325.63;5073455;28;20223;-79
2021/07/04 09:24:32;;;;;;;8.23;7.53;;;;;;;25.16;53.00;100325.03;5073678;28;20214;-80
2021/07/04 09:26:59;;;;;;;8.32;7.53;;;;;;;25.23;52.88;100321.34;5073471;28;20200;-79
2021/07/04 09:29:55;;;;;;;8.30;7.57;;;;;;;25.30;52.22;100307.72;5071719;28;20366;-79
2021/07/04 09:32:25;;;;;;;7.45;6.80;;;;;;;25.38;53.09;100307.56;5012761;28;20201;-80
2021/07/04 09:35:04;;;;;;;7.68;6.95;;;;;;;25.45;52.55;100311.16;5055910;28;20209;-79
2021/07/04 09:37:35;;;;;;;7.97;7.28;;;;;;;25.49;51.85;100303.44;5064304;28;20201;-79
2021/07/04 09:40:23;;;;;;;7.97;6.78;;;;;;;25.56;51.98;100299.69;5065325;28;20225;-79
2021/07/04 09:42:55;;;;;;;8.73;7.63;;;;;;;25.71;52.00;100309.66;5064445;28;20235;-79
2021/07/04 09:45:21;;;;;;;8.35;7.65;;;;;;;25.84;51.43;100298.78;5071038;28;20201;-80
2021/07/04 09:47:52;;;;;;;8.15;7.05;;;;;;;25.98;51.23;100297.75;5075460;28;20288;-80
2021/07/04 09:50:19;;;;;;;8.57;6.93;;;;;;;26.12;51.43;100294.03;5063492;28;20229;-80
2021/07/04 09:53:00;;;;;;;7.60;6.90;;;;;;;26.23;50.04;100298.88;5062548;28;20228;-79
2021/07/04 09:55:28;;;;;;;8.00;7.25;;;;;;;26.26;49.10;100301.22;5070271;28;20223;-80
2021/07/04 09:57:56;;;;;;;8.02;7.15;;;;;;;26.23;49.29;100292.59;5069275;28;20200;-78
2021/07/04 10:00:25;;;;;;;7.50;6.88;;;;;;;26.26;49.23;100294.91;5072145;28;20231;-78
2021/07/04 10:03:11;;;;;;;7.55;6.72;;;;;;;26.32;49.16;100288.66;5072454;28;20196;-78
2021/07/04 10:05:38;;;;;;;7.30;6.72;;;;;;;26.41;48.09;100292.00;5071729;28;20718;-79
2021/07/04 10:08:24;;;;;;;7.22;6.50;;;;;;;26.44;47.67;100286.13;5071469;28;20204;-78
2021/07/04 10:10:53;;;;;;;6.13;5.60;;;;;;;26.47;46.72;100285.72;5065581;28;20220;-78
2021/07/04 10:13:20;;;;;;;6.05;5.55;;;;;;;26.50;45.26;100272.50;5070595;28;20205;-80
2021/07/04 10:15:46;;;;;;;6.25;5.63;;;;;;;26.59;45.20;100273.94;5068659;28;20205;-81
2021/07/04 10:18:14;;;;;;;6.50;5.80;;;;;;;26.71;45.23;100265.94;5076323;28;20205;-79
2021/07/04 10:20:43;;;;;;;6.35;5.32;;;;;;;26.89;45.33;100271.59;5073643;28;20254;-78
2021/07/04 10:23:11;;;;;;;6.25;5.38;;;;;;;27.00;44.21;100261.13;5067792;28;20200;-78
2021/07/04 10:25:39;;;;;;;5.63;5.10;;;;;;;27.10;44.17;100258.78;5073265;28;20238;-79
2021/07/04 10:28:06;;;;;;;6.38;5.50;;;;;;;27.24;43.46;100247.59;5069922;28;20226;-79
2021/07/04 10:30:33;;;;;;;6.07;5.35;;;;;;;27.36;43.29;100246.94;5070665;28;20244;-78
2021/07/04 10:33:13;;;;;;;5.35;4.85;;;;;;;27.43;42.55;100251.31;5071922;28;20201;-79
2021/07/04 10:35:51;;;;;;;5.57;5.07;;;;;;;27.43;42.27;100243.09;5072948;28;20197;-78
2021/07/04 10:38:17;;;;;;;5.82;5.32;;;;;;;27.46;42.88;100236.38;5074677;28;20196;-79
2021/07/04 10:40:46;;;;;;;4.78;4.40;;;;;;;27.55;42.73;100237.81;5068585;28;20232;-78
2021/07/04 10:43:45;;;;;;;5.38;4.88;;;;;;;27.61;42.36;100231.47;5061681;28;21203;-78
2021/07/04 10:46:12;;;;;;;5.55;4.93;;;;;;;27.60;42.39;100235.28;5077559;28;20563;-78
2021/07/04 10:48:52;;;;;;;5.60;5.10;;;;;;;27.61;42.25;100221.38;5075353;28;20207;-79
2021/07/04 10:51:20;;;;;;;5.25;4.85;;;;;;;27.65;42.17;100222.63;5069049;28;20224;-79
2021/07/04 10:53:48;;;;;;;5.25;4.78;;;;;;;27.74;41.34;100212.28;5073938;28;20471;-79
2021/07/04 10:56:39;;;;;;;5.10;4.60;;;;;;;27.86;41.76;100206.94;5070125;28;20229;-79
2021/07/04 10:59:11;;;;;;;6.00;5.50;;;;;;;28.00;42.38;100201.13;5070893;28;20216;-79
2021/07/04 11:01:55;;;;;;;5.55;4.97;;;;;;;28.16;41.98;100207.13;5075147;28;20899;-80
2021/07/04 11:04:55;;;;;;;5.45;5.05;;;;;;;28.20;41.41;100195.56;5074036;28;20246;-80
2021/07/04 11:07:21;;;;;;;5.75;5.30;;;;;;;28.27;41.55;100192.78;5075738;28;20205;-80
2021/07/04 11:10:18;;;;;;;5.95;5.45;;;;;;;28.29;41.63;100182.44;5077201;28;20280;-79
2021/07/04 11:12:47;;;;;;;5.40;5.00;;;;;;;28.27;41.43;100192.78;5071882;28;20210;-80
2021/07/04 11:15:30;;;;;;;6.00;5.50;;;;;;;28.30;41.09;100187.69;5076898;28;20246;-79
2021/07/04 11:18:07;;;;;;;6.28;5.25;;;;;;;28.40;41.07;100180.84;5070302;28;20197;-78
2021/07/04 11:20:54;;;;;;;6.38;5.78;;;;;;;28.53;41.63;100177.97;5065844;28;20240;-78
2021/07/04 11:23:24;;;;;;;5.97;5.43;;;;;;;28.58;41.53;100176.25;5075724;28;20204;-78
2021/07/04 11:25:53;;;;;;;6.05;5.55;;;;;;;28.57;41.43;100176.47;5074191;28;20228;-78
2021/07/04 11:28:28;;;;;;;6.72;6.10;;;;;;;28.62;41.29;100172.00;5070796;28;20208;-78